sensor_id;sensor_type;location;lat;lon;timestamp;P1;durP1;ratioP1;P2;durP2;ratioP2
83447;SDS011;73376;45.472;-73.568;2023-12-14T00:01:32;4.03;;;0.73;;
83447;SDS011;73376;45.472;-73.568;2023-12-14T00:03:58;4.60;;;0.67;;
83447;SDS011;73376;45.472;-73.568;2023-12-14T00:06:24;4.37;;;0.90;;
83447;SDS011;73376;45.472;-73.568;2023-12-14T00:08:53;2.87;;;0.80;;
83447;SDS011;73376;45.472;-73.568;2023-12-14T00:11:19;3.27;;;0.67;;
83447;SDS011;73376;45.472;-73.568;2023-12-14T00:13:45;0.50;;;0.40;;
83447;SDS011;73376;45.472;-73.568;2023-12-14T00:16:11;0.60;;;0.40;;
83447;SDS011;73376;45.472;-73.568;2023-12-14T00:18:37;3.37;;;0.60;;
83447;SDS011;73376;45.472;-73.568;2023-12-14T00:21:03;3.87;;;0.60;;
83447;SDS011;73376;45.472;-73.568;2023-12-14T00:23:30;3.03;;;0.80;;
83447;SDS011;73376;45.472;-73.568;2023-12-14T00:25:56;4.80;;;0.70;;
83447;SDS011;73376;45.472;-73.568;2023-12-14T00:28:22;1.40;;;0.60;;
83447;SDS011;73376;45.472;-73.568;2023-12-14T00:30:48;1.83;;;0.70;;
83447;SDS011;73376;45.472;-73.568;2023-12-14T00:33:14;1.17;;;0.57;;
83447;SDS011;73376;45.472;-73.568;2023-12-14T00:35:41;1.20;;;0.70;;
83447;SDS011;73376;45.472;-73.568;2023-12-14T00:38:09;2.33;;;0.60;;
83447;SDS011;73376;45.472;-73.568;2023-12-14T00:40:35;2.70;;;0.80;;
83447;SDS011;73376;45.472;-73.568;2023-12-14T00:43:01;2.13;;;0.73;;
83447;SDS011;73376;45.472;-73.568;2023-12-14T00:45:30;1.90;;;0.53;;
83447;SDS011;73376;45.472;-73.568;2023-12-14T00:47:56;2.30;;;0.63;;
83447;SDS011;73376;45.472;-73.568;2023-12-14T00:50:23;2.87;;;0.57;;
83447;SDS011;73376;45.472;-73.568;2023-12-14T00:52:49;1.10;;;0.50;;
83447;SDS011;73376;45.472;-73.568;2023-12-14T00:55:15;4.20;;;0.50;;
83447;SDS011;73376;45.472;-73.568;2023-12-14T00:57:41;1.77;;;0.53;;
83447;SDS011;73376;45.472;-73.568;2023-12-14T01:00:08;1.23;;;0.50;;
83447;SDS011;73376;45.472;-73.568;2023-12-14T01:02:38;3.53;;;0.50;;
83447;SDS011;73376;45.472;-73.568;2023-12-14T01:05:04;0.80;;;0.50;;
83447;SDS011;73376;45.472;-73.568;2023-12-14T01:07:30;6.23;;;0.80;;
83447;SDS011;73376;45.472;-73.568;2023-12-14T01:09:56;4.43;;;0.77;;
83447;SDS011;73376;45.472;-73.568;2023-12-14T01:12:22;2.17;;;0.50;;
83447;SDS011;73376;45.472;-73.568;2023-12-14T01:14:51;3.80;;;0.63;;
83447;SDS011;73376;45.472;-73.568;2023-12-14T01:17:17;1.30;;;0.50;;
83447;SDS011;73376;45.472;-73.568;2023-12-14T01:19:43;2.30;;;0.60;;
83447;SDS011;73376;45.472;-73.568;2023-12-14T01:22:10;0.80;;;0.60;;
83447;SDS011;73376;45.472;-73.568;2023-12-14T01:24:36;1.20;;;0.60;;
83447;SDS011;73376;45.472;-73.568;2023-12-14T01:27:02;0.50;;;0.30;;
83447;SDS011;73376;45.472;-73.568;2023-12-14T01:29:31;0.93;;;0.50;;
83447;SDS011;73376;45.472;-73.568;2023-12-14T01:31:57;1.07;;;0.77;;
83447;SDS011;73376;45.472;-73.568;2023-12-14T01:34:23;3.23;;;0.43;;
83447;SDS011;73376;45.472;-73.568;2023-12-14T01:36:50;2.33;;;0.60;;
83447;SDS011;73376;45.472;-73.568;2023-12-14T01:39:16;1.47;;;0.57;;
83447;SDS011;73376;45.472;-73.568;2023-12-14T01:41:42;3.47;;;0.50;;
83447;SDS011;73376;45.472;-73.568;2023-12-14T01:44:11;1.27;;;0.50;;
83447;SDS011;73376;45.472;-73.568;2023-12-14T01:46:37;4.73;;;0.50;;
83447;SDS011;73376;45.472;-73.568;2023-12-14T01:49:05;1.40;;;0.50;;
83447;SDS011;73376;45.472;-73.568;2023-12-14T01:51:31;6.03;;;0.80;;
83447;SDS011;73376;45.472;-73.568;2023-12-14T01:53:59;3.10;;;0.50;;
83447;SDS011;73376;45.472;-73.568;2023-12-14T01:56:25;4.97;;;0.60;;
83447;SDS011;73376;45.472;-73.568;2023-12-14T01:58:51;0.50;;;0.40;;
83447;SDS011;73376;45.472;-73.568;2023-12-14T02:03:54;1.40;;;0.70;;
83447;SDS011;73376;45.472;-73.568;2023-12-14T02:06:21;0.57;;;0.43;;
83447;SDS011;73376;45.472;-73.568;2023-12-14T02:08:50;0.73;;;0.40;;
83447;SDS011;73376;45.472;-73.568;2023-12-14T02:11:16;3.27;;;0.60;;
83447;SDS011;73376;45.472;-73.568;2023-12-14T02:13:42;1.67;;;0.50;;
83447;SDS011;73376;45.472;-73.568;2023-12-14T02:16:08;1.40;;;0.50;;
83447;SDS011;73376;45.472;-73.568;2023-12-14T02:18:34;2.37;;;0.70;;
83447;SDS011;73376;45.472;-73.568;2023-12-14T02:21:00;1.70;;;0.60;;
83447;SDS011;73376;45.472;-73.568;2023-12-14T02:23:26;6.67;;;0.60;;
83447;SDS011;73376;45.472;-73.568;2023-12-14T02:25:53;1.93;;;0.60;;
83447;SDS011;73376;45.472;-73.568;2023-12-14T02:28:19;2.73;;;0.90;;
83447;SDS011;73376;45.472;-73.568;2023-12-14T02:30:45;1.37;;;0.40;;
83447;SDS011;73376;45.472;-73.568;2023-12-14T02:33:11;4.13;;;0.70;;
83447;SDS011;73376;45.472;-73.568;2023-12-14T02:35:37;3.37;;;1.07;;
83447;SDS011;73376;45.472;-73.568;2023-12-14T02:38:03;2.97;;;0.80;;
83447;SDS011;73376;45.472;-73.568;2023-12-14T02:40:30;2.90;;;0.77;;
83447;SDS011;73376;45.472;-73.568;2023-12-14T02:42:56;3.73;;;0.73;;
83447;SDS011;73376;45.472;-73.568;2023-12-14T02:45:22;1.43;;;0.80;;
83447;SDS011;73376;45.472;-73.568;2023-12-14T02:47:48;2.93;;;0.80;;
83447;SDS011;73376;45.472;-73.568;2023-12-14T02:50:15;1.38;;;0.90;;
83447;SDS011;73376;45.472;-73.568;2023-12-14T02:52:41;1.63;;;0.50;;
83447;SDS011;73376;45.472;-73.568;2023-12-14T02:55:07;6.28;;;0.57;;
83447;SDS011;73376;45.472;-73.568;2023-12-14T02:57:34;2.47;;;0.70;;
83447;SDS011;73376;45.472;-73.568;2023-12-14T03:00:00;0.90;;;0.50;;
83447;SDS011;73376;45.472;-73.568;2023-12-14T03:02:26;2.90;;;0.53;;
83447;SDS011;73376;45.472;-73.568;2023-12-14T03:04:52;1.67;;;0.83;;
83447;SDS011;73376;45.472;-73.568;2023-12-14T03:07:18;1.30;;;0.60;;
83447;SDS011;73376;45.472;-73.568;2023-12-14T03:09:44;4.20;;;0.70;;
83447;SDS011;73376;45.472;-73.568;2023-12-14T03:12:10;1.60;;;0.60;;
83447;SDS011;73376;45.472;-73.568;2023-12-14T03:14:36;1.67;;;0.70;;
83447;SDS011;73376;45.472;-73.568;2023-12-14T03:17:05;3.72;;;1.23;;
83447;SDS011;73376;45.472;-73.568;2023-12-14T03:19:32;1.95;;;0.68;;
83447;SDS011;73376;45.472;-73.568;2023-12-14T03:21:58;1.87;;;0.60;;
83447;SDS011;73376;45.472;-73.568;2023-12-14T03:24:24;3.63;;;0.60;;
83447;SDS011;73376;45.472;-73.568;2023-12-14T03:26:50;6.57;;;0.73;;
83447;SDS011;73376;45.472;-73.568;2023-12-14T03:29:16;1.33;;;0.60;;
83447;SDS011;73376;45.472;-73.568;2023-12-14T03:31:42;2.17;;;0.67;;
83447;SDS011;73376;45.472;-73.568;2023-12-14T03:34:08;1.90;;;0.83;;
83447;SDS011;73376;45.472;-73.568;2023-12-14T03:36:34;1.27;;;0.60;;
83447;SDS011;73376;45.472;-73.568;2023-12-14T03:39:03;3.90;;;0.60;;
83447;SDS011;73376;45.472;-73.568;2023-12-14T03:41:29;2.43;;;0.60;;
83447;SDS011;73376;45.472;-73.568;2023-12-14T03:43:55;5.00;;;0.60;;
83447;SDS011;73376;45.472;-73.568;2023-12-14T03:46:21;3.00;;;0.60;;
83447;SDS011;73376;45.472;-73.568;2023-12-14T03:48:47;3.77;;;0.57;;
83447;SDS011;73376;45.472;-73.568;2023-12-14T03:51:12;1.50;;;0.57;;
83447;SDS011;73376;45.472;-73.568;2023-12-14T03:53:38;1.87;;;0.90;;
83447;SDS011;73376;45.472;-73.568;2023-12-14T03:56:05;2.10;;;0.80;;
83447;SDS011;73376;45.472;-73.568;2023-12-14T03:58:31;0.70;;;0.50;;
83447;SDS011;73376;45.472;-73.568;2023-12-14T04:00:57;1.37;;;0.60;;
83447;SDS011;73376;45.472;-73.568;2023-12-14T04:03:23;2.15;;;0.70;;
83447;SDS011;73376;45.472;-73.568;2023-12-14T04:05:49;0.63;;;0.50;;
83447;SDS011;73376;45.472;-73.568;2023-12-14T04:08:15;0.82;;;0.40;;
83447;SDS011;73376;45.472;-73.568;2023-12-14T04:10:41;3.00;;;0.70;;
83447;SDS011;73376;45.472;-73.568;2023-12-14T04:13:07;1.17;;;0.50;;
83447;SDS011;73376;45.472;-73.568;2023-12-14T04:15:33;1.70;;;0.60;;
83447;SDS011;73376;45.472;-73.568;2023-12-14T04:18:00;3.13;;;0.60;;
83447;SDS011;73376;45.472;-73.568;2023-12-14T04:20:28;2.67;;;0.68;;
83447;SDS011;73376;45.472;-73.568;2023-12-14T04:22:54;1.48;;;0.52;;
83447;SDS011;73376;45.472;-73.568;2023-12-14T04:25:20;0.93;;;0.55;;
83447;SDS011;73376;45.472;-73.568;2023-12-14T04:27:47;1.53;;;0.50;;
83447;SDS011;73376;45.472;-73.568;2023-12-14T04:30:15;0.95;;;0.45;;
83447;SDS011;73376;45.472;-73.568;2023-12-14T04:32:41;3.42;;;0.50;;
83447;SDS011;73376;45.472;-73.568;2023-12-14T04:35:07;1.55;;;0.47;;
83447;SDS011;73376;45.472;-73.568;2023-12-14T04:37:33;1.20;;;0.53;;
83447;SDS011;73376;45.472;-73.568;2023-12-14T04:40:01;2.25;;;0.50;;
83447;SDS011;73376;45.472;-73.568;2023-12-14T04:42:28;1.55;;;0.40;;
83447;SDS011;73376;45.472;-73.568;2023-12-14T04:44:54;0.67;;;0.30;;
83447;SDS011;73376;45.472;-73.568;2023-12-14T04:47:20;2.20;;;0.50;;
83447;SDS011;73376;45.472;-73.568;2023-12-14T04:49:46;1.20;;;0.45;;
83447;SDS011;73376;45.472;-73.568;2023-12-14T04:52:12;0.90;;;0.40;;
83447;SDS011;73376;45.472;-73.568;2023-12-14T04:54:38;1.98;;;0.50;;
83447;SDS011;73376;45.472;-73.568;2023-12-14T04:57:05;1.05;;;0.40;;
83447;SDS011;73376;45.472;-73.568;2023-12-14T04:59:31;3.07;;;0.60;;
83447;SDS011;73376;45.472;-73.568;2023-12-14T05:01:57;1.90;;;0.40;;
83447;SDS011;73376;45.472;-73.568;2023-12-14T05:04:23;0.60;;;0.30;;
83447;SDS011;73376;45.472;-73.568;2023-12-14T05:06:50;2.83;;;0.50;;
83447;SDS011;73376;45.472;-73.568;2023-12-14T05:09:16;0.88;;;0.47;;
83447;SDS011;73376;45.472;-73.568;2023-12-14T05:11:42;0.30;;;0.30;;
83447;SDS011;73376;45.472;-73.568;2023-12-14T05:14:08;2.50;;;0.50;;
83447;SDS011;73376;45.472;-73.568;2023-12-14T05:16:34;1.67;;;0.47;;
83447;SDS011;73376;45.472;-73.568;2023-12-14T05:19:00;1.40;;;0.40;;
83447;SDS011;73376;45.472;-73.568;2023-12-14T05:21:26;0.73;;;0.30;;
83447;SDS011;73376;45.472;-73.568;2023-12-14T05:23:52;1.70;;;0.60;;
83447;SDS011;73376;45.472;-73.568;2023-12-14T05:26:20;0.63;;;0.53;;
83447;SDS011;73376;45.472;-73.568;2023-12-14T05:28:46;2.27;;;0.40;;
83447;SDS011;73376;45.472;-73.568;2023-12-14T05:31:12;0.50;;;0.40;;
83447;SDS011;73376;45.472;-73.568;2023-12-14T05:33:39;2.60;;;0.43;;
83447;SDS011;73376;45.472;-73.568;2023-12-14T05:36:05;1.73;;;0.40;;
83447;SDS011;73376;45.472;-73.568;2023-12-14T05:38:36;0.30;;;0.30;;
83447;SDS011;73376;45.472;-73.568;2023-12-14T05:41:03;0.77;;;0.63;;
83447;SDS011;73376;45.472;-73.568;2023-12-14T05:43:29;0.95;;;0.50;;
83447;SDS011;73376;45.472;-73.568;2023-12-14T05:45:56;1.35;;;0.40;;
83447;SDS011;73376;45.472;-73.568;2023-12-14T05:48:24;0.70;;;0.37;;
83447;SDS011;73376;45.472;-73.568;2023-12-14T05:50:52;0.40;;;0.30;;
83447;SDS011;73376;45.472;-73.568;2023-12-14T05:53:18;1.30;;;0.50;;
83447;SDS011;73376;45.472;-73.568;2023-12-14T05:55:44;0.70;;;0.40;;
83447;SDS011;73376;45.472;-73.568;2023-12-14T05:58:10;0.35;;;0.30;;
83447;SDS011;73376;45.472;-73.568;2023-12-14T06:00:36;1.20;;;0.40;;
83447;SDS011;73376;45.472;-73.568;2023-12-14T06:03:05;0.70;;;0.47;;
83447;SDS011;73376;45.472;-73.568;2023-12-14T06:05:31;1.42;;;0.47;;
83447;SDS011;73376;45.472;-73.568;2023-12-14T06:07:57;1.95;;;0.40;;
83447;SDS011;73376;45.472;-73.568;2023-12-14T06:10:23;0.80;;;0.40;;
83447;SDS011;73376;45.472;-73.568;2023-12-14T06:12:49;2.07;;;0.40;;
83447;SDS011;73376;45.472;-73.568;2023-12-14T06:15:15;1.88;;;0.43;;
83447;SDS011;73376;45.472;-73.568;2023-12-14T06:17:41;0.50;;;0.40;;
83447;SDS011;73376;45.472;-73.568;2023-12-14T06:20:08;1.85;;;0.43;;
83447;SDS011;73376;45.472;-73.568;2023-12-14T06:22:38;1.30;;;0.40;;
83447;SDS011;73376;45.472;-73.568;2023-12-14T06:25:04;1.65;;;0.40;;
83447;SDS011;73376;45.472;-73.568;2023-12-14T06:27:31;0.40;;;0.40;;
83447;SDS011;73376;45.472;-73.568;2023-12-14T06:29:57;0.40;;;0.30;;
83447;SDS011;73376;45.472;-73.568;2023-12-14T06:32:23;1.07;;;0.30;;
83447;SDS011;73376;45.472;-73.568;2023-12-14T06:34:49;1.45;;;0.43;;
83447;SDS011;73376;45.472;-73.568;2023-12-14T06:37:21;2.08;;;0.52;;
83447;SDS011;73376;45.472;-73.568;2023-12-14T06:39:47;0.98;;;0.30;;
83447;SDS011;73376;45.472;-73.568;2023-12-14T06:42:13;1.80;;;0.30;;
83447;SDS011;73376;45.472;-73.568;2023-12-14T06:44:39;0.43;;;0.30;;
83447;SDS011;73376;45.472;-73.568;2023-12-14T06:47:05;0.85;;;0.40;;
83447;SDS011;73376;45.472;-73.568;2023-12-14T06:49:31;1.27;;;0.30;;
83447;SDS011;73376;45.472;-73.568;2023-12-14T06:51:57;1.15;;;0.40;;
83447;SDS011;73376;45.472;-73.568;2023-12-14T06:54:23;1.23;;;0.50;;
83447;SDS011;73376;45.472;-73.568;2023-12-14T06:56:49;1.70;;;0.40;;
83447;SDS011;73376;45.472;-73.568;2023-12-14T06:59:15;0.30;;;0.30;;
83447;SDS011;73376;45.472;-73.568;2023-12-14T07:01:41;1.48;;;0.45;;
83447;SDS011;73376;45.472;-73.568;2023-12-14T07:04:07;2.00;;;0.37;;
83447;SDS011;73376;45.472;-73.568;2023-12-14T07:06:33;1.23;;;0.35;;
83447;SDS011;73376;45.472;-73.568;2023-12-14T07:09:00;0.80;;;0.50;;
83447;SDS011;73376;45.472;-73.568;2023-12-14T07:11:26;2.28;;;0.40;;
83447;SDS011;73376;45.472;-73.568;2023-12-14T07:13:53;0.73;;;0.28;;
83447;SDS011;73376;45.472;-73.568;2023-12-14T07:16:19;1.58;;;0.40;;
83447;SDS011;73376;45.472;-73.568;2023-12-14T07:18:48;0.65;;;0.30;;
83447;SDS011;73376;45.472;-73.568;2023-12-14T07:21:14;0.40;;;0.20;;
83447;SDS011;73376;45.472;-73.568;2023-12-14T07:23:40;0.90;;;0.35;;
83447;SDS011;73376;45.472;-73.568;2023-12-14T07:26:08;0.40;;;0.40;;
83447;SDS011;73376;45.472;-73.568;2023-12-14T07:28:34;0.38;;;0.30;;
83447;SDS011;73376;45.472;-73.568;2023-12-14T07:31:00;1.40;;;0.30;;
83447;SDS011;73376;45.472;-73.568;2023-12-14T07:33:26;1.15;;;0.40;;
83447;SDS011;73376;45.472;-73.568;2023-12-14T07:35:52;0.40;;;0.30;;
83447;SDS011;73376;45.472;-73.568;2023-12-14T07:38:18;0.40;;;0.40;;
83447;SDS011;73376;45.472;-73.568;2023-12-14T07:40:44;1.42;;;0.50;;
83447;SDS011;73376;45.472;-73.568;2023-12-14T07:43:12;0.73;;;0.30;;
83447;SDS011;73376;45.472;-73.568;2023-12-14T07:45:38;1.10;;;0.30;;
83447;SDS011;73376;45.472;-73.568;2023-12-14T07:48:04;2.00;;;0.20;;
83447;SDS011;73376;45.472;-73.568;2023-12-14T07:50:30;0.40;;;0.30;;
83447;SDS011;73376;45.472;-73.568;2023-12-14T07:52:56;0.60;;;0.20;;
83447;SDS011;73376;45.472;-73.568;2023-12-14T07:55:22;0.80;;;0.20;;
83447;SDS011;73376;45.472;-73.568;2023-12-14T07:57:48;1.17;;;0.30;;
83447;SDS011;73376;45.472;-73.568;2023-12-14T08:00:15;0.57;;;0.40;;
83447;SDS011;73376;45.472;-73.568;2023-12-14T08:02:43;0.25;;;0.25;;
83447;SDS011;73376;45.472;-73.568;2023-12-14T08:05:09;3.25;;;0.40;;
83447;SDS011;73376;45.472;-73.568;2023-12-14T08:07:36;1.10;;;0.50;;
83447;SDS011;73376;45.472;-73.568;2023-12-14T08:10:04;1.27;;;0.33;;
83447;SDS011;73376;45.472;-73.568;2023-12-14T08:12:30;0.47;;;0.30;;
83447;SDS011;73376;45.472;-73.568;2023-12-14T08:14:56;3.07;;;0.40;;
83447;SDS011;73376;45.472;-73.568;2023-12-14T08:17:22;0.97;;;0.40;;
83447;SDS011;73376;45.472;-73.568;2023-12-14T08:19:53;0.60;;;0.55;;
83447;SDS011;73376;45.472;-73.568;2023-12-14T08:22:19;0.35;;;0.30;;
83447;SDS011;73376;45.472;-73.568;2023-12-14T08:24:47;0.45;;;0.30;;
83447;SDS011;73376;45.472;-73.568;2023-12-14T08:27:13;0.63;;;0.40;;
83447;SDS011;73376;45.472;-73.568;2023-12-14T08:29:42;1.05;;;0.55;;
83447;SDS011;73376;45.472;-73.568;2023-12-14T08:32:10;0.47;;;0.30;;
83447;SDS011;73376;45.472;-73.568;2023-12-14T08:34:36;2.37;;;0.43;;
83447;SDS011;73376;45.472;-73.568;2023-12-14T08:37:02;0.77;;;0.40;;
83447;SDS011;73376;45.472;-73.568;2023-12-14T08:39:31;0.32;;;0.22;;
83447;SDS011;73376;45.472;-73.568;2023-12-14T08:41:57;0.63;;;0.40;;
83447;SDS011;73376;45.472;-73.568;2023-12-14T08:44:23;1.25;;;0.60;;
83447;SDS011;73376;45.472;-73.568;2023-12-14T08:46:49;0.80;;;0.33;;
83447;SDS011;73376;45.472;-73.568;2023-12-14T08:49:15;1.35;;;0.40;;
83447;SDS011;73376;45.472;-73.568;2023-12-14T08:51:42;0.70;;;0.47;;
83447;SDS011;73376;45.472;-73.568;2023-12-14T08:54:08;0.60;;;0.40;;
83447;SDS011;73376;45.472;-73.568;2023-12-14T08:56:34;0.90;;;0.50;;
83447;SDS011;73376;45.472;-73.568;2023-12-14T08:59:03;1.27;;;0.43;;
83447;SDS011;73376;45.472;-73.568;2023-12-14T09:01:30;0.60;;;0.35;;
83447;SDS011;73376;45.472;-73.568;2023-12-14T09:03:58;1.05;;;0.43;;
83447;SDS011;73376;45.472;-73.568;2023-12-14T09:06:24;1.92;;;0.50;;
83447;SDS011;73376;45.472;-73.568;2023-12-14T09:08:50;0.45;;;0.35;;
83447;SDS011;73376;45.472;-73.568;2023-12-14T09:11:17;0.80;;;0.30;;
83447;SDS011;73376;45.472;-73.568;2023-12-14T09:13:42;0.67;;;0.40;;
83447;SDS011;73376;45.472;-73.568;2023-12-14T09:16:08;1.13;;;0.40;;
83447;SDS011;73376;45.472;-73.568;2023-12-14T09:18:35;4.45;;;0.50;;
83447;SDS011;73376;45.472;-73.568;2023-12-14T09:21:01;0.60;;;0.30;;
83447;SDS011;73376;45.472;-73.568;2023-12-14T09:23:28;0.40;;;0.40;;
83447;SDS011;73376;45.472;-73.568;2023-12-14T09:25:54;2.40;;;0.40;;
83447;SDS011;73376;45.472;-73.568;2023-12-14T09:28:21;1.48;;;0.40;;
83447;SDS011;73376;45.472;-73.568;2023-12-14T09:30:47;0.80;;;0.43;;
83447;SDS011;73376;45.472;-73.568;2023-12-14T09:33:13;0.73;;;0.30;;
83447;SDS011;73376;45.472;-73.568;2023-12-14T09:35:39;2.23;;;0.63;;
83447;SDS011;73376;45.472;-73.568;2023-12-14T09:38:06;4.00;;;0.70;;
83447;SDS011;73376;45.472;-73.568;2023-12-14T09:40:33;1.02;;;0.40;;
83447;SDS011;73376;45.472;-73.568;2023-12-14T09:43:00;1.08;;;0.45;;
83447;SDS011;73376;45.472;-73.568;2023-12-14T09:45:29;1.98;;;0.40;;
83447;SDS011;73376;45.472;-73.568;2023-12-14T09:47:58;1.27;;;0.28;;
83447;SDS011;73376;45.472;-73.568;2023-12-14T09:50:26;2.47;;;0.50;;
83447;SDS011;73376;45.472;-73.568;2023-12-14T09:52:52;1.42;;;0.50;;
83447;SDS011;73376;45.472;-73.568;2023-12-14T09:55:18;0.73;;;0.40;;
83447;SDS011;73376;45.472;-73.568;2023-12-14T09:57:44;1.63;;;0.60;;
83447;SDS011;73376;45.472;-73.568;2023-12-14T10:00:31;2.42;;;0.55;;
83447;SDS011;73376;45.472;-73.568;2023-12-14T10:06:01;0.40;;;0.32;;
83447;SDS011;73376;45.472;-73.568;2023-12-14T10:10:58;1.53;;;0.50;;
83447;SDS011;73376;45.472;-73.568;2023-12-14T10:13:36;1.58;;;0.50;;
83447;SDS011;73376;45.472;-73.568;2023-12-14T10:16:03;1.38;;;0.40;;
83447;SDS011;73376;45.472;-73.568;2023-12-14T10:18:29;1.00;;;0.50;;
83447;SDS011;73376;45.472;-73.568;2023-12-14T10:20:59;1.23;;;0.55;;
83447;SDS011;73376;45.472;-73.568;2023-12-14T10:23:26;0.63;;;0.50;;
83447;SDS011;73376;45.472;-73.568;2023-12-14T10:25:53;2.78;;;0.60;;
83447;SDS011;73376;45.472;-73.568;2023-12-14T10:28:19;2.90;;;0.77;;
83447;SDS011;73376;45.472;-73.568;2023-12-14T10:30:45;1.90;;;0.57;;
83447;SDS011;73376;45.472;-73.568;2023-12-14T10:33:16;0.80;;;0.47;;
83447;SDS011;73376;45.472;-73.568;2023-12-14T10:35:42;0.73;;;0.52;;
83447;SDS011;73376;45.472;-73.568;2023-12-14T10:38:11;1.73;;;0.60;;
83447;SDS011;73376;45.472;-73.568;2023-12-14T10:40:37;1.40;;;0.52;;
83447;SDS011;73376;45.472;-73.568;2023-12-14T10:43:08;3.67;;;0.65;;
83447;SDS011;73376;45.472;-73.568;2023-12-14T10:45:35;3.92;;;0.93;;
83447;SDS011;73376;45.472;-73.568;2023-12-14T10:48:04;4.65;;;0.70;;
83447;SDS011;73376;45.472;-73.568;2023-12-14T10:50:31;1.92;;;0.80;;
83447;SDS011;73376;45.472;-73.568;2023-12-14T10:52:59;1.67;;;0.65;;
83447;SDS011;73376;45.472;-73.568;2023-12-14T10:55:45;1.38;;;0.60;;
83447;SDS011;73376;45.472;-73.568;2023-12-14T10:58:15;2.30;;;0.80;;
83447;SDS011;73376;45.472;-73.568;2023-12-14T11:00:41;3.80;;;0.98;;
83447;SDS011;73376;45.472;-73.568;2023-12-14T11:03:09;3.63;;;0.73;;
83447;SDS011;73376;45.472;-73.568;2023-12-14T11:05:38;1.42;;;0.75;;
83447;SDS011;73376;45.472;-73.568;2023-12-14T11:08:05;2.87;;;0.80;;
83447;SDS011;73376;45.472;-73.568;2023-12-14T11:10:52;1.83;;;0.77;;
83447;SDS011;73376;45.472;-73.568;2023-12-14T11:13:37;2.13;;;0.65;;
83447;SDS011;73376;45.472;-73.568;2023-12-14T11:16:06;3.10;;;0.70;;
83447;SDS011;73376;45.472;-73.568;2023-12-14T11:18:33;6.63;;;1.33;;
83447;SDS011;73376;45.472;-73.568;2023-12-14T11:21:02;2.63;;;1.67;;
83447;SDS011;73376;45.472;-73.568;2023-12-14T11:23:29;2.00;;;0.88;;
83447;SDS011;73376;45.472;-73.568;2023-12-14T11:28:31;2.00;;;0.70;;
83447;SDS011;73376;45.472;-73.568;2023-12-14T11:31:01;6.28;;;0.98;;
83447;SDS011;73376;45.472;-73.568;2023-12-14T11:33:33;2.05;;;0.73;;
83447;SDS011;73376;45.472;-73.568;2023-12-14T11:36:02;3.80;;;0.90;;
83447;SDS011;73376;45.472;-73.568;2023-12-14T11:38:31;4.60;;;1.20;;
83447;SDS011;73376;45.472;-73.568;2023-12-14T11:41:00;1.50;;;0.60;;
83447;SDS011;73376;45.472;-73.568;2023-12-14T11:43:26;2.97;;;0.70;;
83447;SDS011;73376;45.472;-73.568;2023-12-14T11:45:52;4.18;;;0.90;;
83447;SDS011;73376;45.472;-73.568;2023-12-14T11:48:20;3.28;;;1.00;;
83447;SDS011;73376;45.472;-73.568;2023-12-14T11:50:47;2.95;;;0.75;;
83447;SDS011;73376;45.472;-73.568;2023-12-14T11:53:13;2.28;;;0.65;;
83447;SDS011;73376;45.472;-73.568;2023-12-14T11:55:40;2.45;;;0.90;;
83447;SDS011;73376;45.472;-73.568;2023-12-14T11:58:07;3.58;;;1.10;;
83447;SDS011;73376;45.472;-73.568;2023-12-14T12:00:34;4.07;;;0.70;;
83447;SDS011;73376;45.472;-73.568;2023-12-14T12:03:16;4.00;;;1.08;;
83447;SDS011;73376;45.472;-73.568;2023-12-14T12:08:12;11.75;;;2.47;;
83447;SDS011;73376;45.472;-73.568;2023-12-14T12:10:40;6.25;;;0.80;;
83447;SDS011;73376;45.472;-73.568;2023-12-14T12:13:08;4.20;;;0.90;;
83447;SDS011;73376;45.472;-73.568;2023-12-14T12:15:38;1.45;;;0.70;;
83447;SDS011;73376;45.472;-73.568;2023-12-14T12:18:05;7.15;;;1.00;;
83447;SDS011;73376;45.472;-73.568;2023-12-14T12:20:33;8.25;;;0.90;;
83447;SDS011;73376;45.472;-73.568;2023-12-14T12:23:00;3.55;;;0.80;;
83447;SDS011;73376;45.472;-73.568;2023-12-14T12:25:28;3.38;;;0.98;;
83447;SDS011;73376;45.472;-73.568;2023-12-14T12:27:56;4.80;;;1.15;;
83447;SDS011;73376;45.472;-73.568;2023-12-14T12:30:26;2.30;;;0.95;;
83447;SDS011;73376;45.472;-73.568;2023-12-14T12:32:52;4.45;;;1.42;;
83447;SDS011;73376;45.472;-73.568;2023-12-14T12:35:21;7.00;;;1.00;;
83447;SDS011;73376;45.472;-73.568;2023-12-14T12:37:48;7.10;;;1.35;;
83447;SDS011;73376;45.472;-73.568;2023-12-14T12:40:19;2.28;;;0.90;;
83447;SDS011;73376;45.472;-73.568;2023-12-14T12:42:48;2.35;;;0.90;;
83447;SDS011;73376;45.472;-73.568;2023-12-14T12:45:15;2.35;;;0.80;;
83447;SDS011;73376;45.472;-73.568;2023-12-14T12:47:43;6.18;;;0.88;;
83447;SDS011;73376;45.472;-73.568;2023-12-14T12:50:10;2.85;;;0.93;;
83447;SDS011;73376;45.472;-73.568;2023-12-14T12:52:38;3.90;;;1.10;;
83447;SDS011;73376;45.472;-73.568;2023-12-14T12:55:05;1.20;;;0.50;;
83447;SDS011;73376;45.472;-73.568;2023-12-14T12:57:35;2.90;;;0.70;;
83447;SDS011;73376;45.472;-73.568;2023-12-14T13:00:02;3.47;;;1.00;;
83447;SDS011;73376;45.472;-73.568;2023-12-14T13:02:29;3.03;;;1.17;;
83447;SDS011;73376;45.472;-73.568;2023-12-14T13:04:55;4.93;;;0.95;;
83447;SDS011;73376;45.472;-73.568;2023-12-14T13:07:22;7.20;;;1.27;;
83447;SDS011;73376;45.472;-73.568;2023-12-14T13:09:48;4.60;;;1.47;;
83447;SDS011;73376;45.472;-73.568;2023-12-14T13:12:14;10.17;;;2.00;;
83447;SDS011;73376;45.472;-73.568;2023-12-14T13:14:43;7.95;;;1.90;;
83447;SDS011;73376;45.472;-73.568;2023-12-14T13:17:09;6.53;;;1.40;;
83447;SDS011;73376;45.472;-73.568;2023-12-14T13:19:37;6.75;;;1.40;;
83447;SDS011;73376;45.472;-73.568;2023-12-14T13:22:03;6.13;;;1.50;;
83447;SDS011;73376;45.472;-73.568;2023-12-14T13:24:30;11.95;;;1.63;;
83447;SDS011;73376;45.472;-73.568;2023-12-14T13:26:56;7.90;;;1.50;;
83447;SDS011;73376;45.472;-73.568;2023-12-14T13:29:22;7.80;;;1.67;;
83447;SDS011;73376;45.472;-73.568;2023-12-14T13:31:51;2.45;;;1.38;;
83447;SDS011;73376;45.472;-73.568;2023-12-14T13:34:24;4.78;;;1.60;;
83447;SDS011;73376;45.472;-73.568;2023-12-14T13:36:50;9.77;;;1.63;;
83447;SDS011;73376;45.472;-73.568;2023-12-14T13:39:17;10.82;;;1.80;;
83447;SDS011;73376;45.472;-73.568;2023-12-14T13:41:43;7.22;;;1.73;;
83447;SDS011;73376;45.472;-73.568;2023-12-14T13:44:11;5.22;;;1.40;;
83447;SDS011;73376;45.472;-73.568;2023-12-14T13:46:37;8.35;;;1.65;;
83447;SDS011;73376;45.472;-73.568;2023-12-14T13:49:03;7.87;;;2.70;;
83447;SDS011;73376;45.472;-73.568;2023-12-14T13:51:32;6.03;;;1.25;;
83447;SDS011;73376;45.472;-73.568;2023-12-14T13:54:01;5.90;;;1.30;;
83447;SDS011;73376;45.472;-73.568;2023-12-14T13:56:27;9.18;;;1.33;;
83447;SDS011;73376;45.472;-73.568;2023-12-14T13:58:53;3.73;;;1.27;;
83447;SDS011;73376;45.472;-73.568;2023-12-14T14:01:21;5.70;;;1.50;;
83447;SDS011;73376;45.472;-73.568;2023-12-14T14:03:48;4.75;;;1.23;;
83447;SDS011;73376;45.472;-73.568;2023-12-14T14:06:16;4.22;;;1.20;;
83447;SDS011;73376;45.472;-73.568;2023-12-14T14:08:42;2.13;;;1.07;;
83447;SDS011;73376;45.472;-73.568;2023-12-14T14:11:10;5.70;;;1.20;;
83447;SDS011;73376;45.472;-73.568;2023-12-14T14:13:37;3.37;;;1.87;;
83447;SDS011;73376;45.472;-73.568;2023-12-14T14:16:04;4.33;;;1.50;;
83447;SDS011;73376;45.472;-73.568;2023-12-14T14:18:31;2.47;;;1.17;;
83447;SDS011;73376;45.472;-73.568;2023-12-14T14:21:00;6.13;;;2.10;;
83447;SDS011;73376;45.472;-73.568;2023-12-14T14:23:26;2.87;;;1.40;;
83447;SDS011;73376;45.472;-73.568;2023-12-14T14:25:52;2.13;;;1.20;;
83447;SDS011;73376;45.472;-73.568;2023-12-14T14:28:21;2.20;;;1.00;;
83447;SDS011;73376;45.472;-73.568;2023-12-14T14:30:50;3.33;;;1.17;;
83447;SDS011;73376;45.472;-73.568;2023-12-14T14:33:16;5.10;;;1.20;;